This is the latest recevied weather packets stored in our database for station/object DB7GV-8. If no packets are shown the sender has not sent any weather packets the latest 10 day(s).
| Time | Temp. | Humidity | Pressure | Rain* | Wind** | Luminosity | Snow |
|---|---|---|---|---|---|---|---|
| 1777606279 | 3.89° C | 54% | 1025.1 hPa | - | - | - | - |
| 1777605373 | 3.89° C | 54% | 1025 hPa | - | - | - | - |
| 1777604467 | 3.89° C | 54% | 1025 hPa | - | - | - | - |
| 1777603562 | 4.44° C | 53% | 1025.1 hPa | - | - | - | - |
| 1777602657 | 4.44° C | 52% | 1025.1 hPa | - | - | - | - |
| 1777586360 | 8.89° C | 39% | 1024.8 hPa | - | - | - | - |
| 1777583643 | 8.89° C | 39% | 1024.5 hPa | - | - | - | - |
| 1777582738 | 10° C | 36% | 1024.5 hPa | - | - | - | - |
| 1777580927 | 10.56° C | 33% | 1024.3 hPa | - | - | - | - |
| 1777579116 | 10.56° C | 38% | 1024.3 hPa | - | - | - | - |
| 1777571873 | 15.56° C | 22% | 1022.9 hPa | - | - | - | - |
| 1777568251 | 18.89° C | 20% | 1022.7 hPa | - | - | - | - |
| 1777565535 | 20.56° C | 19% | 1022.3 hPa | - | - | - | - |
| 1777561008 | 21.67° C | 21% | 1022 hPa | - | - | - | - |
| 1777558292 | 21.67° C | 22% | 1022.3 hPa | - | - | - | - |
| 1777557386 | 21.67° C | 22% | 1022.3 hPa | - | - | - | - |
| 1777554670 | 21.67° C | 23% | 1022.4 hPa | - | - | - | - |
| 1777551954 | 21.67° C | 22% | 1022.6 hPa | - | - | - | - |
| 1777551049 | 21.67° C | 23% | 1022.7 hPa | - | - | - | - |
| 1777550142 | 22.78° C | 23% | 1022.7 hPa | - | - | - | - |
| 1777548332 | 21.11° C | 22% | 1022.9 hPa | - | - | - | - |
| 1777545615 | 21.67° C | 22% | 1023.1 hPa | - | - | - | - |
| 1777542900 | 22.22° C | 22% | 1023.3 hPa | - | - | - | - |
| 1777541994 | 22.22° C | 21% | 1023.4 hPa | - | - | - | - |
| 1777541088 | 21.67° C | 21% | 1023.6 hPa | - | - | - | - |
* Rain since midnight (hover to see other rain measurements)
** Current wind speed in m/s (hover to see current wind gust speed)